James Davison — WDF9427 — position and weather

sailwx.info

Track history (hours):
 
Tides and Currents Weather Stations Pressure Air Temp Water Temp Dewpoint Dewpoint Depression Visibility Wind Speed Wind Dir Waves Ship Positions

James Davison

Owner: Genesis Marine, LLC, Houston, TX. More information available from US FCC via Universal Licensing System and Coast Guard Vessel Documentation Center.

Last reported at 2017-Dec-10 09:06 UTC. Time now 2017-Dec-14 16:49 UTC.
Position N 29°57' W 090°23'.

Length 26 m; draft 3 m.

Type: Other ship. MMSI: 367505050.

Date/timePositionNaut miles runAvg speedWind from/ knotsBaromVisibWave heightAir tempDewpointWater temp
2017-Dec-10 09:06N 29°57' W 090°23'1 5.9
2017-Dec-10 09:00N 29°56' W 090°22'23 1.5
2017-Dec-09 16:59N 29°34' W 090°28'3 5.7
2017-Dec-09 16:30N 29°34' W 090°31'3 5.5
2017-Dec-09 16:00N 29°34' W 090°34'2 4.8
2017-Dec-09 15:30N 29°35' W 090°37'3 5.2
2017-Dec-09 15:00N 29°36' W 090°40'2 4.6
2017-Dec-09 14:30N 29°37' W 090°42'2 3.9
2017-Dec-09 14:00N 29°35' W 090°43'2 3.7
2017-Dec-09 13:30N 29°34' W 090°45'1 2.3
2017-Dec-09 13:00N 29°33' W 090°45'3 5.2
2017-Dec-09 12:30N 29°32' W 090°48'3 6.0
2017-Dec-09 12:01N 29°32' W 090°52'3 6.1
2017-Dec-09 11:30N 29°33' W 090°55'3 5.9
2017-Dec-09 10:58N 29°35' W 090°58'53 4.0
2017-Dec-08 21:41N 29°51' W 091°57'1 4.8
2017-Dec-08 21:30N 29°50' W 091°58'2 4.8
2017-Dec-08 21:00N 29°50' W 092°00'3 5.2
2017-Dec-08 20:31N 29°49' W 092°03'3 5.2
2017-Dec-08 20:00N 29°48' W 092°06'3 5.3
2017-Dec-08 19:30N 29°47' W 092°09'2 5.0
2017-Dec-08 19:00N 29°47' W 092°12'2 4.5
2017-Dec-08 18:30N 29°48' W 092°14'2 4.4
2017-Dec-08 18:00N 29°49' W 092°16'2 4.7
2017-Dec-08 17:30N 29°50' W 092°18'3 5.0
2017-Dec-08 17:01N 29°51' W 092°21'41 3.0
2017-Dec-08 03:19N 29°56' W 093°08'1 4.6
2017-Dec-08 03:00N 29°56' W 093°09'2 4.3
2017-Dec-08 02:30N 29°58' W 093°11'2 3.9
2017-Dec-08 02:00N 29°59' W 093°12'1 2.3
2017-Dec-08 01:30N 29°60' W 093°13'2 3.1
2017-Dec-08 01:00N 30°01' W 093°14'1 2.7
2017-Dec-08 00:30N 30°02' W 093°15'1 2.3
2017-Dec-08 00:00N 30°03' W 093°16'2 3.1
2017-Dec-07 23:31N 30°05' W 093°17'1 2.4
2017-Dec-07 23:00N 30°05' W 093°18'1 2.6
2017-Dec-07 22:30N 30°06' W 093°19'0 0.5
2017-Dec-07 22:00N 30°06' W 093°19'0 0.0
2017-Dec-07 21:30N 30°06' W 093°19'0 0.0
2017-Dec-07 21:00N 30°06' W 093°19'0 0.0
2017-Dec-07 20:30N 30°06' W 093°19'0 0.0
2017-Dec-07 20:01N 30°06' W 093°19'0 0.0
2017-Dec-07 19:30N 30°06' W 093°19'0 0.1
2017-Dec-07 19:00N 30°06' W 093°19'0 0.0
2017-Dec-07 18:31N 30°06' W 093°19'0 0.0
2017-Dec-07 18:00N 30°06' W 093°19'0 0.0
2017-Dec-07 17:30N 30°06' W 093°19'0 0.0
2017-Dec-07 17:00N 30°06' W 093°19'0 0.8
2017-Dec-07 16:30N 30°06' W 093°19'2 4.2
2017-Dec-07 16:00N 30°04' W 093°21'2 3.8
2017-Dec-07 15:30N 30°04' W 093°23'3 5.1
2017-Dec-07 15:00N 30°04' W 093°26'3 5.0
2017-Dec-07 14:30N 30°04' W 093°29'2 4.6
2017-Dec-07 14:00N 30°04' W 093°32'2 4.6
2017-Dec-07 13:30N 30°04' W 093°34'3 5.3
2017-Dec-07 13:00N 30°04' W 093°37'5 5.7
2017-Dec-07 12:11N 30°03' W 093°43'1 3.9
2017-Dec-07 11:57N 30°03' W 093°44'  
2017-Dec-03 08:17N 29°22' W 094°53'0 0.2
2017-Dec-03 07:56N 29°22' W 094°53'1 1.8
2017-Dec-03 07:30N 29°23' W 094°53'6 3.0
2017-Dec-03 05:23N 29°29' W 094°52'2 6.0
2017-Dec-03 05:00N 29°31' W 094°53'3 5.6
2017-Dec-03 04:30N 29°33' W 094°55'3 5.7
2017-Dec-03 04:00N 29°36' W 094°57'3 5.8
2017-Dec-03 03:30N 29°38' W 094°58'3 5.7
2017-Dec-03 03:00N 29°41' W 094°59'3 5.3
2017-Dec-03 02:30N 29°43' W 095°01'3 5.1
2017-Dec-03 01:53N 29°45' W 095°04'1 2.6
2017-Dec-03 01:21N 29°45' W 095°06'1 0.1
2017-Dec-02 07:46N 29°46' W 095°07'0 0.0
2017-Dec-02 06:17N 29°46' W 095°07'0 0.0
2017-Dec-02 05:49N 29°46' W 095°07'0 0.0
2017-Dec-02 00:15N 29°46' W 095°07'1 2.2
2017-Dec-01 23:43N 29°45' W 095°06'3 0.8
2017-Dec-01 19:57N 29°44' W 095°03'3 5.7
2017-Dec-01 19:30N 29°42' W 095°01'3 6.7
2017-Dec-01 18:59N 29°39' W 094°58'4 7.6
2017-Dec-01 18:30N 29°36' W 094°57'4 7.2
2017-Dec-01 18:00N 29°33' W 094°54'51 1.8
2017-Nov-30 14:24N 29°49' W 093°59'1 1.7
2017-Nov-30 13:55N 29°49' W 093°58'1 1.5
2017-Nov-30 13:25N 29°49' W 093°59'0 0.1
2017-Nov-30 12:58N 29°49' W 093°59'0 0.0
2017-Nov-30 12:30N 29°49' W 093°59'0 0.0
2017-Nov-30 11:29N 29°49' W 093°59'0 0.0
2017-Nov-30 11:00N 29°49' W 093°59'0 0.0
2017-Nov-30 10:30N 29°49' W 093°59'0 0.0
2017-Nov-30 10:00N 29°49' W 093°59'0 0.0
2017-Nov-30 09:30N 29°49' W 093°59'  
Track history (hours):
 
Tides and Currents Weather Stations Pressure Air Temp Water Temp Dewpoint Dewpoint Depression Visibility Wind Speed Wind Dir Waves Ship Positions

James Davison

Owner: Genesis Marine, LLC, Houston, TX. More information available from US FCC via Universal Licensing System and Coast Guard Vessel Documentation Center.

Last reported at 2017-Dec-10 09:06 UTC. Time now 2017-Dec-14 16:49 UTC.
Position N 29°57' W 090°23'.

Length 26 m; draft 3 m.

Type: Other ship. MMSI: 367505050.

Date/timePositionNaut miles runAvg speedWind from/ knotsBaromVisibWave heightAir tempDewpointWater temp
2017-Dec-10 09:06N 29°57' W 090°23'1 5.9
2017-Dec-10 09:00N 29°56' W 090°22'23 1.5
2017-Dec-09 16:59N 29°34' W 090°28'3 5.7
2017-Dec-09 16:30N 29°34' W 090°31'3 5.5
2017-Dec-09 16:00N 29°34' W 090°34'2 4.8
2017-Dec-09 15:30N 29°35' W 090°37'3 5.2
2017-Dec-09 15:00N 29°36' W 090°40'2 4.6
2017-Dec-09 14:30N 29°37' W 090°42'2 3.9
2017-Dec-09 14:00N 29°35' W 090°43'2 3.7
2017-Dec-09 13:30N 29°34' W 090°45'1 2.3
2017-Dec-09 13:00N 29°33' W 090°45'3 5.2
2017-Dec-09 12:30N 29°32' W 090°48'3 6.0
2017-Dec-09 12:01N 29°32' W 090°52'3 6.1
2017-Dec-09 11:30N 29°33' W 090°55'3 5.9
2017-Dec-09 10:58N 29°35' W 090°58'53 4.0
2017-Dec-08 21:41N 29°51' W 091°57'1 4.8
2017-Dec-08 21:30N 29°50' W 091°58'2 4.8
2017-Dec-08 21:00N 29°50' W 092°00'3 5.2
2017-Dec-08 20:31N 29°49' W 092°03'3 5.2
2017-Dec-08 20:00N 29°48' W 092°06'3 5.3
2017-Dec-08 19:30N 29°47' W 092°09'2 5.0
2017-Dec-08 19:00N 29°47' W 092°12'2 4.5
2017-Dec-08 18:30N 29°48' W 092°14'2 4.4
2017-Dec-08 18:00N 29°49' W 092°16'2 4.7
2017-Dec-08 17:30N 29°50' W 092°18'3 5.0
2017-Dec-08 17:01N 29°51' W 092°21'41 3.0
2017-Dec-08 03:19N 29°56' W 093°08'1 4.6
2017-Dec-08 03:00N 29°56' W 093°09'2 4.3
2017-Dec-08 02:30N 29°58' W 093°11'2 3.9
2017-Dec-08 02:00N 29°59' W 093°12'1 2.3
2017-Dec-08 01:30N 29°60' W 093°13'2 3.1
2017-Dec-08 01:00N 30°01' W 093°14'1 2.7
2017-Dec-08 00:30N 30°02' W 093°15'1 2.3
2017-Dec-08 00:00N 30°03' W 093°16'2 3.1
2017-Dec-07 23:31N 30°05' W 093°17'1 2.4
2017-Dec-07 23:00N 30°05' W 093°18'1 2.6
2017-Dec-07 22:30N 30°06' W 093°19'0 0.5
2017-Dec-07 22:00N 30°06' W 093°19'0 0.0
2017-Dec-07 21:30N 30°06' W 093°19'0 0.0
2017-Dec-07 21:00N 30°06' W 093°19'0 0.0
2017-Dec-07 20:30N 30°06' W 093°19'0 0.0
2017-Dec-07 20:01N 30°06' W 093°19'0 0.0
2017-Dec-07 19:30N 30°06' W 093°19'0 0.1
2017-Dec-07 19:00N 30°06' W 093°19'0 0.0
2017-Dec-07 18:31N 30°06' W 093°19'0 0.0
2017-Dec-07 18:00N 30°06' W 093°19'0 0.0
2017-Dec-07 17:30N 30°06' W 093°19'0 0.0
2017-Dec-07 17:00N 30°06' W 093°19'0 0.8
2017-Dec-07 16:30N 30°06' W 093°19'2 4.2
2017-Dec-07 16:00N 30°04' W 093°21'2 3.8
2017-Dec-07 15:30N 30°04' W 093°23'3 5.1
2017-Dec-07 15:00N 30°04' W 093°26'3 5.0
2017-Dec-07 14:30N 30°04' W 093°29'2 4.6
2017-Dec-07 14:00N 30°04' W 093°32'2 4.6
2017-Dec-07 13:30N 30°04' W 093°34'3 5.3
2017-Dec-07 13:00N 30°04' W 093°37'5 5.7
2017-Dec-07 12:11N 30°03' W 093°43'1 3.9
2017-Dec-07 11:57N 30°03' W 093°44'  
2017-Dec-03 08:17N 29°22' W 094°53'0 0.2
2017-Dec-03 07:56N 29°22' W 094°53'1 1.8
2017-Dec-03 07:30N 29°23' W 094°53'6 3.0
2017-Dec-03 05:23N 29°29' W 094°52'2 6.0
2017-Dec-03 05:00N 29°31' W 094°53'3 5.6
2017-Dec-03 04:30N 29°33' W 094°55'3 5.7
2017-Dec-03 04:00N 29°36' W 094°57'3 5.8
2017-Dec-03 03:30N 29°38' W 094°58'3 5.7
2017-Dec-03 03:00N 29°41' W 094°59'3 5.3
2017-Dec-03 02:30N 29°43' W 095°01'3 5.1
2017-Dec-03 01:53N 29°45' W 095°04'1 2.6
2017-Dec-03 01:21N 29°45' W 095°06'1 0.1
2017-Dec-02 07:46N 29°46' W 095°07'0 0.0
2017-Dec-02 06:17N 29°46' W 095°07'0 0.0
2017-Dec-02 05:49N 29°46' W 095°07'0 0.0
2017-Dec-02 00:15N 29°46' W 095°07'1 2.2
2017-Dec-01 23:43N 29°45' W 095°06'3 0.8
2017-Dec-01 19:57N 29°44' W 095°03'3 5.7
2017-Dec-01 19:30N 29°42' W 095°01'3 6.7
2017-Dec-01 18:59N 29°39' W 094°58'4 7.6
2017-Dec-01 18:30N 29°36' W 094°57'4 7.2
2017-Dec-01 18:00N 29°33' W 094°54'51 1.8
2017-Nov-30 14:24N 29°49' W 093°59'1 1.7
2017-Nov-30 13:55N 29°49' W 093°58'1 1.5
2017-Nov-30 13:25N 29°49' W 093°59'0 0.1
2017-Nov-30 12:58N 29°49' W 093°59'0 0.0
2017-Nov-30 12:30N 29°49' W 093°59'0 0.0
2017-Nov-30 11:29N 29°49' W 093°59'0 0.0
2017-Nov-30 11:00N 29°49' W 093°59'0 0.0
2017-Nov-30 10:30N 29°49' W 093°59'0 0.0
2017-Nov-30 10:00N 29°49' W 093°59'0 0.0
2017-Nov-30 09:30N 29°49' W 093°59'  

Dump ship's entire track history